createdAt,value
2023-05-05T00:00:00.135Z,65
2023-05-05T00:05:00.142Z,65
2023-05-05T00:10:00.158Z,66
2023-05-05T00:15:00.145Z,66
2023-05-05T00:20:00.137Z,66
2023-05-05T00:25:00.113Z,66
2023-05-05T00:30:00.148Z,66
2023-05-05T00:35:00.130Z,67
2023-05-05T00:40:00.258Z,66
2023-05-05T00:45:00.137Z,67
2023-05-05T00:50:00.203Z,66
2023-05-05T00:55:00.138Z,67
2023-05-05T01:00:00.335Z,67
2023-05-05T01:05:00.166Z,67
2023-05-05T01:10:15.024Z,67
2023-05-05T01:15:00.128Z,66
2023-05-05T01:20:00.160Z,65
2023-05-05T01:25:00.153Z,65
2023-05-05T01:30:00.206Z,65
2023-05-05T01:35:00.116Z,65
2023-05-05T01:40:00.106Z,64
2023-05-05T01:45:00.161Z,64
2023-05-05T01:50:00.137Z,65
2023-05-05T01:55:00.129Z,64
2023-05-05T02:00:00.143Z,63
2023-05-05T02:05:00.172Z,63
2023-05-05T02:10:00.194Z,64
2023-05-05T02:15:00.112Z,64
2023-05-05T02:20:00.123Z,65
2023-05-05T02:25:00.143Z,64
2023-05-05T02:30:00.128Z,65
2023-05-05T02:35:00.131Z,66
2023-05-05T02:40:00.157Z,65
2023-05-05T02:45:00.144Z,64
2023-05-05T02:50:00.165Z,63
2023-05-05T02:55:00.124Z,63
2023-05-05T03:00:00.130Z,64
2023-05-05T03:05:00.126Z,64
2023-05-05T03:10:00.194Z,66
2023-05-05T03:15:00.118Z,67
2023-05-05T03:20:01.671Z,67
2023-05-05T03:25:00.162Z,67
2023-05-05T03:30:00.178Z,67
2023-05-05T03:35:00.143Z,66
2023-05-05T03:40:00.174Z,67
2023-05-05T03:45:00.174Z,66
2023-05-05T03:50:00.148Z,67
2023-05-05T03:55:00.150Z,67
2023-05-05T04:00:00.163Z,68
2023-05-05T04:05:00.138Z,68
2023-05-05T04:10:00.173Z,68
2023-05-05T04:15:00.111Z,69
2023-05-05T04:20:00.200Z,69
2023-05-05T04:25:00.202Z,69
2023-05-05T04:30:00.218Z,69
2023-05-05T04:35:00.142Z,70
2023-05-05T04:40:00.119Z,70
2023-05-05T04:45:00.137Z,68
2023-05-05T04:50:00.185Z,67
2023-05-05T04:55:00.111Z,66
2023-05-05T05:00:00.170Z,65
2023-05-05T05:05:00.140Z,65
2023-05-05T05:10:00.162Z,65
2023-05-05T05:15:00.159Z,66
2023-05-05T05:20:00.220Z,63
2023-05-05T05:25:00.172Z,61
2023-05-05T05:30:00.188Z,59
2023-05-05T05:35:00.177Z,58
2023-05-05T05:40:00.190Z,57
2023-05-05T05:45:00.195Z,55
2023-05-05T05:50:00.141Z,53
2023-05-05T05:55:00.110Z,52
2023-05-05T06:00:01.998Z,53
2023-05-05T06:05:00.115Z,52
2023-05-05T06:10:04.872Z,53
2023-05-05T06:15:00.149Z,50
2023-05-05T06:20:00.144Z,50
2023-05-05T06:25:00.170Z,52
2023-05-05T06:30:00.118Z,50
2023-05-05T06:35:00.126Z,49
2023-05-05T06:40:00.179Z,49
2023-05-05T06:45:00.138Z,50
2023-05-05T06:50:00.157Z,50
2023-05-05T06:55:00.131Z,50
2023-05-05T07:00:00.140Z,51
2023-05-05T07:05:00.167Z,50
2023-05-05T07:10:00.177Z,50
2023-05-05T07:15:03.171Z,51
2023-05-05T07:20:00.128Z,51
2023-05-05T07:25:00.160Z,50
2023-05-05T07:30:00.149Z,50
2023-05-05T07:35:00.111Z,50
2023-05-05T07:40:00.117Z,49
2023-05-05T07:45:00.127Z,50
2023-05-05T07:50:00.117Z,50
2023-05-05T07:55:00.128Z,50
2023-05-05T08:00:00.135Z,50
2023-05-05T08:05:00.140Z,50
2023-05-05T08:10:00.146Z,50
2023-05-05T08:15:00.131Z,50
2023-05-05T08:20:00.143Z,50
2023-05-05T08:25:00.152Z,50
2023-05-05T08:30:00.132Z,50
2023-05-05T08:35:00.120Z,49
2023-05-05T08:40:00.257Z,49
2023-05-05T08:45:00.140Z,48
2023-05-05T08:50:00.141Z,49
2023-05-05T08:55:00.108Z,48
2023-05-05T09:00:00.138Z,49
2023-05-05T09:05:00.123Z,48
2023-05-05T09:10:00.125Z,48
2023-05-05T09:15:00.117Z,49
2023-05-05T09:20:00.152Z,47
2023-05-05T09:25:00.102Z,47
2023-05-05T09:30:00.160Z,47
2023-05-05T09:35:00.162Z,50
2023-05-05T09:40:00.170Z,51
2023-05-05T09:45:00.259Z,49
2023-05-05T09:50:00.110Z,48
2023-05-05T09:55:00.164Z,47
2023-05-05T10:00:00.145Z,48
2023-05-05T10:05:01.618Z,48
2023-05-05T10:10:00.208Z,48
2023-05-05T10:15:00.096Z,48
2023-05-05T10:20:00.156Z,46
2023-05-05T10:25:05.118Z,47
2023-05-05T10:30:00.164Z,47
2023-05-05T10:35:00.130Z,47
2023-05-05T10:40:00.135Z,49
2023-05-05T10:45:00.211Z,49
2023-05-05T10:50:00.158Z,48
2023-05-05T10:55:00.131Z,50
2023-05-05T11:00:00.247Z,49
2023-05-05T11:05:00.146Z,48
2023-05-05T11:10:00.200Z,48
2023-05-05T11:20:00.175Z,47
2023-05-05T11:25:00.110Z,48
2023-05-05T11:30:00.192Z,48
2023-05-05T11:35:00.164Z,46
2023-05-05T11:40:00.160Z,47
2023-05-05T11:45:00.131Z,47
2023-05-05T11:50:00.192Z,48
2023-05-05T11:55:00.293Z,46
2023-05-05T12:05:00.176Z,45
2023-05-05T12:10:00.188Z,46
2023-05-05T12:15:00.122Z,47
2023-05-05T12:20:00.158Z,45
2023-05-05T12:25:00.112Z,47
2023-05-05T12:30:00.116Z,46
2023-05-05T12:35:00.150Z,47
2023-05-05T12:40:00.177Z,47
2023-05-05T12:45:00.152Z,47
2023-05-05T12:50:00.186Z,46
2023-05-05T12:55:00.206Z,45
2023-05-05T13:00:00.170Z,45
2023-05-05T13:05:00.149Z,46
2023-05-05T13:10:00.189Z,45
2023-05-05T13:15:00.132Z,44
2023-05-05T13:20:00.158Z,44
2023-05-05T13:25:00.128Z,44
2023-05-05T13:30:00.170Z,44
2023-05-05T13:35:00.145Z,43
2023-05-05T13:40:00.150Z,44
2023-05-05T13:45:00.182Z,44
2023-05-05T13:50:00.151Z,43
2023-05-05T13:55:00.117Z,45
2023-05-05T14:00:00.115Z,45
2023-05-05T14:05:00.381Z,44
2023-05-05T14:10:00.161Z,45
2023-05-05T14:15:00.135Z,46
2023-05-05T14:20:00.182Z,45
2023-05-05T14:25:00.153Z,45
2023-05-05T14:30:00.140Z,47
2023-05-05T14:35:00.160Z,47
2023-05-05T14:40:00.193Z,47
2023-05-05T14:45:00.115Z,49
2023-05-05T14:50:00.152Z,50
2023-05-05T14:55:00.151Z,50
2023-05-05T15:00:00.153Z,49
2023-05-05T15:05:00.138Z,49
2023-05-05T15:10:00.200Z,50
2023-05-05T15:15:00.114Z,49
2023-05-05T15:20:00.185Z,49
2023-05-05T15:25:00.147Z,49
2023-05-05T15:30:00.187Z,49
2023-05-05T15:35:00.126Z,48
2023-05-05T15:40:00.169Z,48
2023-05-05T15:45:00.181Z,48
2023-05-05T15:50:00.175Z,49
2023-05-05T15:55:00.137Z,49
2023-05-05T16:00:00.161Z,50
2023-05-05T16:05:00.150Z,49
2023-05-05T16:10:00.132Z,48
2023-05-05T16:15:00.142Z,49
2023-05-05T16:20:00.142Z,49
2023-05-05T16:25:00.198Z,50
2023-05-05T16:30:00.113Z,45
2023-05-05T16:35:00.127Z,45
2023-05-05T16:40:00.180Z,45
2023-05-05T16:45:00.131Z,47
2023-05-05T16:50:00.238Z,47
2023-05-05T16:55:00.163Z,49
2023-05-05T17:00:00.252Z,49
2023-05-05T17:05:00.236Z,50
2023-05-05T17:10:00.226Z,50
2023-05-05T17:15:00.143Z,50
2023-05-05T17:20:00.158Z,51
2023-05-05T17:25:00.155Z,51
2023-05-05T17:30:00.169Z,51
2023-05-05T17:35:00.100Z,51
2023-05-05T17:40:00.172Z,51
2023-05-05T17:45:00.157Z,51
2023-05-05T17:50:00.170Z,55
2023-05-05T18:05:00.994Z,70
2023-05-05T18:15:00.164Z,75
2023-05-05T18:20:00.176Z,77
2023-05-05T18:25:00.131Z,78
2023-05-05T18:30:00.138Z,79
2023-05-05T18:35:00.127Z,80
2023-05-05T18:40:00.543Z,80
2023-05-05T18:50:00.186Z,82
2023-05-05T18:55:00.122Z,82
2023-05-05T19:00:00.156Z,82
2023-05-05T19:05:00.229Z,83
2023-05-05T19:10:00.168Z,83
2023-05-05T19:15:00.139Z,84
2023-05-05T19:20:00.197Z,85
2023-05-05T19:25:00.138Z,85
2023-05-05T19:30:00.157Z,86
2023-05-05T19:35:00.143Z,87
2023-05-05T19:40:00.147Z,87
2023-05-05T19:45:00.134Z,87
2023-05-05T19:50:00.200Z,86
2023-05-05T19:55:00.193Z,86
2023-05-05T20:00:00.175Z,86
2023-05-05T20:05:00.135Z,86
2023-05-05T20:10:00.223Z,86
2023-05-05T20:15:00.137Z,86
2023-05-05T20:20:00.180Z,86
2023-05-05T20:25:00.173Z,87
2023-05-05T20:30:00.188Z,87
2023-05-05T20:35:00.150Z,87
2023-05-05T20:40:00.219Z,87
2023-05-05T20:45:00.178Z,87
2023-05-05T20:50:00.207Z,87
2023-05-05T20:55:00.147Z,87
2023-05-05T21:05:00.141Z,88
2023-05-05T21:10:00.168Z,88
2023-05-05T21:15:00.121Z,89
2023-05-05T21:20:00.178Z,89
2023-05-05T21:25:00.112Z,89
2023-05-05T21:30:00.116Z,89
2023-05-05T21:35:00.129Z,89
2023-05-05T21:40:00.112Z,89
2023-05-05T21:45:00.102Z,89
2023-05-05T21:50:00.200Z,89
2023-05-05T21:55:00.157Z,89
2023-05-05T22:00:00.169Z,89
2023-05-05T22:05:00.150Z,89
2023-05-05T22:10:00.194Z,90
2023-05-05T22:15:00.130Z,90
2023-05-05T22:20:00.176Z,90
2023-05-05T22:25:00.114Z,90
2023-05-05T22:30:00.148Z,90
2023-05-05T22:35:00.129Z,91
2023-05-05T22:40:00.176Z,91
2023-05-05T22:45:00.193Z,91
2023-05-05T22:50:00.185Z,90
2023-05-05T23:00:00.185Z,89
2023-05-05T23:05:00.129Z,89
2023-05-05T23:10:00.127Z,89
2023-05-05T23:15:00.142Z,89
2023-05-05T23:20:00.137Z,88
2023-05-05T23:25:00.111Z,88
2023-05-05T23:30:00.171Z,87
2023-05-05T23:35:00.122Z,87
2023-05-05T23:40:00.126Z,86
2023-05-05T23:45:00.113Z,86
2023-05-05T23:50:00.147Z,87
2023-05-05T23:55:00.095Z,88
